PRIVATE WETTERSTATION BILLIGHEIM-ALLFELD                       ZURCK
Wetterdaten: Freitag, 16.09.2016
Datum Zeit Temp. A. Temp. A. min Temp. A. max Feuchte A. Luftdruck Regen Wind Richtung Richtung Sonnenschein ET Solar Taupunkt Windchill Windben Empfang
16.09.2016 00:00 17,3 C 17,3 C 17,4 C 83 % 1012,5 hPa 0,0 l/m 0,0 km/h (0 Bft) W-SW 247 0 min 0,025 mm 0 W/m 14,4 C 17,3 C 6,4 km/h (2 Bft) 100 %
16.09.2016 00:10 17,2 C 17,2 C 17,3 C 83 % 1012,5 hPa 0,0 l/m 3,2 km/h (1 Bft) W 270 0 min 0,000 mm 0 W/m 14,3 C 17,2 C 14,5 km/h (3 Bft) 100 %
16.09.2016 00:20 17,1 C 17,1 C 17,2 C 83 % 1012,5 hPa 0,0 l/m 1,6 km/h (1 Bft) W 270 0 min 0,000 mm 0 W/m 14,2 C 17,1 C 9,7 km/h (2 Bft) 100 %
16.09.2016 00:30 17,1 C 17,1 C 17,2 C 83 % 1012,5 hPa 0,0 l/m 1,6 km/h (1 Bft) W 270 0 min 0,000 mm 0 W/m 14,2 C 17,1 C 9,7 km/h (2 Bft) 100 %
16.09.2016 00:40 17,1 C 17,1 C 17,1 C 83 % 1012,5 hPa 0,0 l/m 0,0 km/h (0 Bft) W 270 0 min 0,000 mm 0 W/m 14,2 C 17,1 C 8,0 km/h (2 Bft) 100 %
16.09.2016 00:50 16,9 C 16,9 C 17,1 C 83 % 1012,7 hPa 0,0 l/m 1,6 km/h (1 Bft) W 270 0 min 0,000 mm 0 W/m 14,0 C 16,9 C 8,0 km/h (2 Bft) 100 %
16.09.2016 01:00 16,8 C 16,8 C 16,9 C 83 % 1012,7 hPa 0,0 l/m 0,0 km/h (0 Bft) W 270 0 min 0,025 mm 0 W/m 13,9 C 16,8 C 6,4 km/h (2 Bft) 100 %
16.09.2016 01:10 16,6 C 16,6 C 16,8 C 84 % 1012,8 hPa 0,0 l/m 0,0 km/h (0 Bft) W-NW 292 0 min 0,000 mm 0 W/m 13,9 C 16,6 C 6,4 km/h (2 Bft) 100 %
16.09.2016 01:20 16,3 C 16,3 C 16,6 C 85 % 1012,9 hPa 0,0 l/m 1,6 km/h (1 Bft) SW 225 0 min 0,000 mm 0 W/m 13,8 C 16,3 C 9,7 km/h (2 Bft) 100 %
16.09.2016 01:30 16,2 C 16,2 C 16,3 C 85 % 1013,1 hPa 0,0 l/m 1,6 km/h (1 Bft) W-SW 247 0 min 0,000 mm 0 W/m 13,7 C 16,2 C 9,7 km/h (2 Bft) 100 %
16.09.2016 01:40 16,1 C 16,1 C 16,2 C 86 % 1013,2 hPa 0,0 l/m 1,6 km/h (1 Bft) W-SW 247 0 min 0,000 mm 0 W/m 13,8 C 16,1 C 11,3 km/h (2 Bft) 100 %
16.09.2016 01:50 16,0 C 16,0 C 16,1 C 86 % 1013,2 hPa 0,0 l/m 1,6 km/h (1 Bft) W-SW 247 0 min 0,000 mm 0 W/m 13,7 C 16,0 C 8,0 km/h (2 Bft) 100 %
16.09.2016 02:00 15,9 C 15,9 C 16,0 C 86 % 1013,2 hPa 0,0 l/m 0,0 km/h (0 Bft) W 270 0 min 0,025 mm 0 W/m 13,6 C 15,9 C 9,7 km/h (2 Bft) 100 %
16.09.2016 02:10 15,8 C 15,8 C 15,9 C 86 % 1013,1 hPa 0,0 l/m 0,0 km/h (0 Bft) W 270 0 min 0,000 mm 0 W/m 13,5 C 15,8 C 3,2 km/h (1 Bft) 100 %
16.09.2016 02:20 15,7 C 15,7 C 15,8 C 87 % 1013,1 hPa 0,0 l/m 0,0 km/h (0 Bft) N 0 0 min 0,000 mm 0 W/m 13,5 C 15,7 C 0,0 km/h (0 Bft) 100 %
16.09.2016 02:30 15,5 C 15,4 C 15,7 C 87 % 1013,1 hPa 0,0 l/m 0,0 km/h (0 Bft) N 0 0 min 0,000 mm 0 W/m 13,3 C 15,5 C 0,0 km/h (0 Bft) 100 %
16.09.2016 02:40 15,3 C 15,3 C 15,4 C 87 % 1013,1 hPa 0,0 l/m 0,0 km/h (0 Bft) N 0 0 min 0,000 mm 0 W/m 13,1 C 15,3 C 0,0 km/h (0 Bft) 100 %
16.09.2016 02:50 15,1 C 15,1 C 15,3 C 87 % 1013,1 hPa 0,0 l/m 0,0 km/h (0 Bft) N 0 0 min 0,000 mm 0 W/m 13,0 C 15,1 C 0,0 km/h (0 Bft) 100 %
16.09.2016 03:00 14,8 C 14,8 C 15,1 C 88 % 1013,0 hPa 0,0 l/m 0,0 km/h (0 Bft) N 0 0 min 0,000 mm 0 W/m 12,8 C 14,8 C 0,0 km/h (0 Bft) 100 %
16.09.2016 03:10 14,6 C 14,6 C 14,8 C 88 % 1013,1 hPa 0,0 l/m 0,0 km/h (0 Bft) W 270 0 min 0,000 mm 0 W/m 12,6 C 14,6 C 1,6 km/h (1 Bft) 100 %
16.09.2016 03:20 14,6 C 14,6 C 14,6 C 88 % 1013,0 hPa 0,0 l/m 0,0 km/h (0 Bft) W 270 0 min 0,000 mm 0 W/m 12,6 C 14,6 C 4,8 km/h (1 Bft) 100 %
16.09.2016 03:30 14,5 C 14,5 C 14,6 C 88 % 1013,0 hPa 0,0 l/m 1,6 km/h (1 Bft) W 270 0 min 0,000 mm 0 W/m 12,5 C 14,5 C 4,8 km/h (1 Bft) 100 %
16.09.2016 03:40 14,3 C 14,3 C 14,5 C 88 % 1013,0 hPa 0,0 l/m 0,0 km/h (0 Bft) W 270 0 min 0,000 mm 0 W/m 12,3 C 14,3 C 1,6 km/h (1 Bft) 100 %
16.09.2016 03:50 14,1 C 14,1 C 14,3 C 89 % 1013,0 hPa 0,0 l/m 0,0 km/h (0 Bft) SW 225 0 min 0,000 mm 0 W/m 12,3 C 14,1 C 1,6 km/h (1 Bft) 100 %
16.09.2016 04:00 14,1 C 14,1 C 14,1 C 89 % 1013,0 hPa 0,0 l/m 0,0 km/h (0 Bft) N 0 0 min 0,000 mm 0 W/m 12,3 C 14,1 C 0,0 km/h (0 Bft) 99 %
16.09.2016 04:10 14,1 C 14,1 C 14,2 C 89 % 1013,1 hPa 0,0 l/m 1,6 km/h (1 Bft) SW 225 0 min 0,000 mm 0 W/m 12,3 C 14,1 C 6,4 km/h (2 Bft) 100 %
16.09.2016 04:20 14,1 C 14,1 C 14,1 C 89 % 1013,2 hPa 0,0 l/m 1,6 km/h (1 Bft) SW 225 0 min 0,000 mm 0 W/m 12,3 C 14,1 C 4,8 km/h (1 Bft) 100 %
16.09.2016 04:30 13,9 C 13,9 C 14,1 C 89 % 1013,2 hPa 0,0 l/m 0,0 km/h (0 Bft) N 0 0 min 0,000 mm 0 W/m 12,1 C 13,9 C 0,0 km/h (0 Bft) 100 %
16.09.2016 04:40 13,9 C 13,9 C 13,9 C 89 % 1013,2 hPa 0,0 l/m 0,0 km/h (0 Bft) N 0 0 min 0,000 mm 0 W/m 12,1 C 13,9 C 0,0 km/h (0 Bft) 100 %
16.09.2016 04:50 13,8 C 13,8 C 13,9 C 89 % 1013,1 hPa 0,0 l/m 0,0 km/h (0 Bft) SW 225 0 min 0,000 mm 0 W/m 12,0 C 13,8 C 1,6 km/h (1 Bft) 100 %
16.09.2016 05:00 13,8 C 13,8 C 13,8 C 89 % 1013,2 hPa 0,0 l/m 0,0 km/h (0 Bft) N 0 0 min 0,000 mm 0 W/m 12,0 C 13,8 C 0,0 km/h (0 Bft) 100 %
16.09.2016 05:10 13,8 C 13,8 C 13,8 C 90 % 1013,1 hPa 0,0 l/m 0,0 km/h (0 Bft) N 0 0 min 0,000 mm 0 W/m 12,2 C 13,8 C 0,0 km/h (0 Bft) 99 %
16.09.2016 05:20 13,8 C 13,8 C 13,9 C 89 % 1013,0 hPa 0,0 l/m 0,0 km/h (0 Bft) N 0 0 min 0,000 mm 0 W/m 12,0 C 13,8 C 0,0 km/h (0 Bft) 100 %
16.09.2016 05:30 13,7 C 13,7 C 13,8 C 90 % 1012,9 hPa 0,0 l/m 0,0 km/h (0 Bft) N 0 0 min 0,000 mm 0 W/m 12,1 C 13,7 C 0,0 km/h (0 Bft) 100 %
16.09.2016 05:40 13,7 C 13,7 C 13,7 C 90 % 1012,8 hPa 0,0 l/m 0,0 km/h (0 Bft) N 0 0 min 0,000 mm 0 W/m 12,1 C 13,7 C 0,0 km/h (0 Bft) 100 %
16.09.2016 05:50 13,5 C 13,5 C 13,7 C 89 % 1012,8 hPa 0,0 l/m 0,0 km/h (0 Bft) SW 225 0 min 0,000 mm 0 W/m 11,7 C 13,5 C 3,2 km/h (1 Bft) 100 %
16.09.2016 06:00 13,4 C 13,3 C 13,5 C 90 % 1012,8 hPa 0,0 l/m 1,6 km/h (1 Bft) SW 225 0 min 0,000 mm 0 W/m 11,8 C 13,4 C 4,8 km/h (1 Bft) 100 %
16.09.2016 06:10 13,3 C 13,3 C 13,4 C 90 % 1012,9 hPa 0,0 l/m 0,0 km/h (0 Bft) N 0 0 min 0,000 mm 0 W/m 11,7 C 13,3 C 0,0 km/h (0 Bft) 100 %
16.09.2016 06:20 13,5 C 13,3 C 13,5 C 90 % 1012,6 hPa 0,0 l/m 0,0 km/h (0 Bft) N 0 0 min 0,000 mm 0 W/m 11,9 C 13,5 C 0,0 km/h (0 Bft) 100 %
16.09.2016 06:30 13,3 C 13,3 C 13,5 C 90 % 1012,8 hPa 0,0 l/m 0,0 km/h (0 Bft) N 0 0 min 0,000 mm 0 W/m 11,7 C 13,3 C 0,0 km/h (0 Bft) 100 %
16.09.2016 06:40 12,9 C 12,9 C 13,3 C 90 % 1012,8 hPa 0,0 l/m 0,0 km/h (0 Bft) N 0 0 min 0,000 mm 0 W/m 11,3 C 12,9 C 0,0 km/h (0 Bft) 100 %
16.09.2016 06:50 12,6 C 12,6 C 12,9 C 90 % 1012,8 hPa 0,0 l/m 0,0 km/h (0 Bft) N 0 0 min 0,000 mm 0 W/m 11,0 C 12,6 C 0,0 km/h (0 Bft) 100 %
16.09.2016 07:00 12,8 C 12,6 C 12,8 C 90 % 1012,8 hPa 0,0 l/m 0,0 km/h (0 Bft) N 0 0 min 0,000 mm 0 W/m 11,2 C 12,8 C 0,0 km/h (0 Bft) 100 %
16.09.2016 07:10 12,9 C 12,8 C 13,0 C 90 % 1012,7 hPa 0,0 l/m 0,0 km/h (0 Bft) N 0 0 min 0,000 mm 7 W/m 11,3 C 12,9 C 0,0 km/h (0 Bft) 100 %
16.09.2016 07:20 12,8 C 12,8 C 13,0 C 90 % 1012,9 hPa 0,0 l/m 0,0 km/h (0 Bft) N 0 0 min 0,000 mm 11 W/m 11,2 C 12,8 C 0,0 km/h (0 Bft) 100 %
16.09.2016 07:30 12,6 C 12,6 C 12,8 C 90 % 1012,8 hPa 0,0 l/m 0,0 km/h (0 Bft) N 0 0 min 0,000 mm 14 W/m 11,0 C 12,6 C 0,0 km/h (0 Bft) 100 %
16.09.2016 07:40 12,9 C 12,6 C 12,9 C 90 % 1013,0 hPa 0,0 l/m 0,0 km/h (0 Bft) N 0 0 min 0,000 mm 19 W/m 11,3 C 12,9 C 0,0 km/h (0 Bft) 100 %
16.09.2016 07:50 12,9 C 12,9 C 13,1 C 90 % 1012,9 hPa 0,0 l/m 0,0 km/h (0 Bft) N 0 0 min 0,000 mm 26 W/m 11,3 C 12,9 C 0,0 km/h (0 Bft) 100 %
16.09.2016 08:00 12,9 C 12,9 C 12,9 C 90 % 1013,2 hPa 0,0 l/m 0,0 km/h (0 Bft) N 0 0 min 0,000 mm 60 W/m 11,3 C 12,9 C 0,0 km/h (0 Bft) 100 %
16.09.2016 08:10 12,9 C 12,8 C 12,9 C 91 % 1013,3 hPa 0,0 l/m 0,0 km/h (0 Bft) SW 225 0 min 0,000 mm 63 W/m 11,5 C 12,9 C 1,6 km/h (1 Bft) 100 %
16.09.2016 08:20 13,1 C 12,9 C 13,1 C 91 % 1013,3 hPa 0,0 l/m 0,0 km/h (0 Bft) N 0 0 min 0,000 mm 62 W/m 11,7 C 13,1 C 0,0 km/h (0 Bft) 100 %
16.09.2016 08:30 13,4 C 13,1 C 13,4 C 91 % 1013,6 hPa 0,0 l/m 0,0 km/h (0 Bft) SW 225 0 min 0,000 mm 56 W/m 12,0 C 13,4 C 1,6 km/h (1 Bft) 100 %
16.09.2016 08:40 13,6 C 13,4 C 13,6 C 90 % 1013,7 hPa 0,0 l/m 0,0 km/h (0 Bft) N 0 0 min 0,000 mm 49 W/m 12,0 C 13,6 C 0,0 km/h (0 Bft) 91 %
16.09.2016 08:50 13,6 C 13,6 C 13,7 C 90 % 1013,7 hPa 0,0 l/m 0,0 km/h (0 Bft) S-SW 202 0 min 0,000 mm 69 W/m 12,0 C 13,6 C 1,6 km/h (1 Bft) 100 %
16.09.2016 09:00 13,8 C 13,6 C 13,8 C 90 % 1013,8 hPa 0,0 l/m 0,0 km/h (0 Bft) SO 135 0 min 0,025 mm 69 W/m 12,2 C 13,8 C 1,6 km/h (1 Bft) 100 %
16.09.2016 09:10 13,8 C 13,8 C 13,8 C 90 % 1013,9 hPa 0,0 l/m 0,0 km/h (0 Bft) SO 135 0 min 0,000 mm 67 W/m 12,2 C 13,8 C 1,6 km/h (1 Bft) 100 %
16.09.2016 09:20 13,9 C 13,8 C 13,9 C 90 % 1013,6 hPa 0,0 l/m 0,0 km/h (0 Bft) N 0 0 min 0,000 mm 100 W/m 12,3 C 13,9 C 0,0 km/h (0 Bft) 100 %
16.09.2016 09:30 14,3 C 13,9 C 14,3 C 90 % 1013,6 hPa 0,0 l/m 0,0 km/h (0 Bft) N 0 10 min 0,000 mm 153 W/m 12,7 C 14,3 C 0,0 km/h (0 Bft) 100 %
16.09.2016 09:40 14,6 C 14,3 C 14,6 C 90 % 1013,6 hPa 0,0 l/m 0,0 km/h (0 Bft) N 0 10 min 0,000 mm 188 W/m 13,0 C 14,6 C 0,0 km/h (0 Bft) 100 %
16.09.2016 09:50 15,1 C 14,6 C 15,1 C 90 % 1013,7 hPa 0,0 l/m 0,0 km/h (0 Bft) S-SO 157 10 min 0,000 mm 195 W/m 13,5 C 15,1 C 1,6 km/h (1 Bft) 100 %
16.09.2016 10:00 15,5 C 15,1 C 15,5 C 89 % 1013,9 hPa 0,0 l/m 0,0 km/h (0 Bft) N 0 10 min 0,076 mm 230 W/m 13,7 C 15,5 C 0,0 km/h (0 Bft) 100 %
16.09.2016 10:10 15,7 C 15,5 C 15,7 C 89 % 1014,1 hPa 0,0 l/m 0,0 km/h (0 Bft) N 0 0 min 0,000 mm 132 W/m 13,9 C 15,7 C 0,0 km/h (0 Bft) 100 %
16.09.2016 10:20 15,8 C 15,7 C 15,8 C 89 % 1014,2 hPa 0,0 l/m 0,0 km/h (0 Bft) S-SW 202 0 min 0,000 mm 121 W/m 14,0 C 15,8 C 1,6 km/h (1 Bft) 100 %
16.09.2016 10:30 15,9 C 15,8 C 15,9 C 88 % 1014,1 hPa 0,0 l/m 1,6 km/h (1 Bft) SW 225 0 min 0,000 mm 125 W/m 13,9 C 15,9 C 8,0 km/h (2 Bft) 100 %
16.09.2016 10:40 16,2 C 15,9 C 16,2 C 88 % 1014,1 hPa 0,0 l/m 0,0 km/h (0 Bft) SW 225 10 min 0,000 mm 155 W/m 14,2 C 16,2 C 6,4 km/h (2 Bft) 100 %
16.09.2016 10:50 16,4 C 16,2 C 16,4 C 86 % 1014,1 hPa 0,0 l/m 0,0 km/h (0 Bft) W 270 0 min 0,000 mm 137 W/m 14,1 C 16,4 C 4,8 km/h (1 Bft) 100 %
16.09.2016 11:00 16,6 C 16,4 C 16,6 C 86 % 1013,8 hPa 0,0 l/m 6,4 km/h (2 Bft) W-NW 292 0 min 0,076 mm 149 W/m 14,2 C 16,6 C 11,3 km/h (2 Bft) 100 %
16.09.2016 11:10 16,7 C 16,6 C 16,7 C 85 % 1014,0 hPa 0,0 l/m 1,6 km/h (1 Bft) NW 315 10 min 0,000 mm 169 W/m 14,2 C 16,7 C 11,3 km/h (2 Bft) 100 %
16.09.2016 11:20 16,8 C 16,7 C 16,9 C 84 % 1014,0 hPa 0,0 l/m 3,2 km/h (1 Bft) W-NW 292 10 min 0,000 mm 188 W/m 14,1 C 16,8 C 9,7 km/h (2 Bft) 100 %
16.09.2016 11:30 16,9 C 16,8 C 16,9 C 83 % 1014,0 hPa 0,0 l/m 4,8 km/h (1 Bft) W-NW 292 10 min 0,000 mm 188 W/m 14,0 C 16,9 C 11,3 km/h (2 Bft) 100 %
16.09.2016 11:40 17,1 C 16,9 C 17,1 C 84 % 1014,0 hPa 0,0 l/m 1,6 km/h (1 Bft) W-SW 247 10 min 0,000 mm 193 W/m 14,4 C 17,1 C 6,4 km/h (2 Bft) 100 %
16.09.2016 11:50 17,3 C 17,1 C 17,3 C 83 % 1013,9 hPa 0,0 l/m 1,6 km/h (1 Bft) SW 225 10 min 0,000 mm 209 W/m 14,4 C 17,3 C 8,0 km/h (2 Bft) 100 %
16.09.2016 12:00 17,6 C 17,3 C 17,6 C 82 % 1013,9 hPa 0,0 l/m 0,0 km/h (0 Bft) SW 225 10 min 0,102 mm 260 W/m 14,5 C 17,6 C 3,2 km/h (1 Bft) 100 %
16.09.2016 12:10 18,1 C 17,6 C 18,1 C 81 % 1013,9 hPa 0,0 l/m 0,0 km/h (0 Bft) SW 225 10 min 0,000 mm 612 W/m 14,8 C 18,1 C 1,6 km/h (1 Bft) 100 %
16.09.2016 12:20 18,8 C 18,1 C 18,8 C 76 % 1013,9 hPa 0,0 l/m 6,4 km/h (2 Bft) W-NW 292 10 min 0,000 mm 587 W/m 14,5 C 18,8 C 16,1 km/h (3 Bft) 100 %
16.09.2016 12:30 19,3 C 18,8 C 19,3 C 76 % 1013,8 hPa 0,0 l/m 6,4 km/h (2 Bft) W-NW 292 10 min 0,000 mm 805 W/m 15,0 C 19,3 C 12,9 km/h (3 Bft) 100 %
16.09.2016 12:40 20,1 C 19,3 C 20,1 C 75 % 1013,9 hPa 0,0 l/m 8,0 km/h (2 Bft) W 270 10 min 0,000 mm 823 W/m 15,5 C 19,5 C 20,9 km/h (4 Bft) 100 %
16.09.2016 12:50 20,7 C 20,1 C 20,7 C 71 % 1013,7 hPa 0,0 l/m 6,4 km/h (2 Bft) W 270 10 min 0,000 mm 863 W/m 15,2 C 20,7 C 16,1 km/h (3 Bft) 100 %
16.09.2016 13:00 21,1 C 20,7 C 21,1 C 70 % 1013,8 hPa 0,0 l/m 9,7 km/h (2 Bft) W 270 10 min 0,381 mm 751 W/m 15,4 C 19,9 C 20,9 km/h (4 Bft) 100 %
16.09.2016 13:10 21,4 C 21,1 C 21,4 C 67 % 1013,8 hPa 0,0 l/m 8,0 km/h (2 Bft) W 270 10 min 0,000 mm 756 W/m 15,0 C 20,8 C 19,3 km/h (3 Bft) 100 %
16.09.2016 13:20 21,8 C 21,4 C 21,8 C 65 % 1013,6 hPa 0,0 l/m 9,7 km/h (2 Bft) W-NW 292 10 min 0,000 mm 793 W/m 14,9 C 20,7 C 19,3 km/h (3 Bft) 100 %
16.09.2016 13:30 21,9 C 21,8 C 21,9 C 64 % 1013,7 hPa 0,0 l/m 12,9 km/h (3 Bft) NW 315 10 min 0,000 mm 840 W/m 14,8 C 20,0 C 20,9 km/h (4 Bft) 100 %
16.09.2016 13:40 21,3 C 21,3 C 21,9 C 63 % 1013,7 hPa 0,0 l/m 11,3 km/h (2 Bft) W-NW 292 10 min 0,000 mm 271 W/m 14,0 C 19,7 C 24,1 km/h (4 Bft) 100 %
16.09.2016 13:50 20,8 C 20,8 C 21,3 C 65 % 1013,6 hPa 0,0 l/m 11,3 km/h (2 Bft) W-NW 292 10 min 0,000 mm 434 W/m 14,0 C 19,1 C 24,1 km/h (4 Bft) 100 %
16.09.2016 14:00 21,3 C 20,8 C 21,3 C 66 % 1013,6 hPa 0,0 l/m 11,3 km/h (2 Bft) W-NW 292 10 min 0,381 mm 962 W/m 14,7 C 19,7 C 20,9 km/h (4 Bft) 100 %
16.09.2016 14:10 21,7 C 21,3 C 21,7 C 63 % 1013,6 hPa 0,0 l/m 9,7 km/h (2 Bft) W-NW 292 10 min 0,000 mm 805 W/m 14,3 C 20,6 C 22,5 km/h (4 Bft) 100 %
16.09.2016 14:20 21,7 C 21,6 C 21,7 C 63 % 1013,5 hPa 0,0 l/m 8,0 km/h (2 Bft) W-NW 292 10 min 0,000 mm 742 W/m 14,3 C 21,1 C 20,9 km/h (4 Bft) 100 %
16.09.2016 14:30 21,8 C 21,6 C 21,8 C 62 % 1013,4 hPa 0,0 l/m 6,4 km/h (2 Bft) W 270 10 min 0,000 mm 719 W/m 14,2 C 21,8 C 19,3 km/h (3 Bft) 100 %
16.09.2016 14:40 22,2 C 21,8 C 22,2 C 61 % 1013,2 hPa 0,0 l/m 4,8 km/h (1 Bft) W-SW 247 10 min 0,000 mm 717 W/m 14,3 C 22,2 C 16,1 km/h (3 Bft) 100 %
16.09.2016 14:50 22,3 C 22,2 C 22,4 C 61 % 1013,1 hPa 0,0 l/m 9,7 km/h (2 Bft) W 270 10 min 0,000 mm 684 W/m 14,4 C 21,3 C 22,5 km/h (4 Bft) 100 %
16.09.2016 15:00 22,1 C 22,1 C 22,3 C 60 % 1013,1 hPa 0,0 l/m 6,4 km/h (2 Bft) W-NW 292 10 min 0,406 mm 680 W/m 14,0 C 22,1 C 20,9 km/h (4 Bft) 100 %
16.09.2016 15:20 22,4 C 22,1 C 22,4 C 59 % 1013,0 hPa 0,0 l/m 11,2 km/h (2 Bft) W-SW 255 20 min 0,000 mm 615 W/m 14,0 C 21,0 C 19,3 km/h (3 Bft) 100 %
16.09.2016 15:30 22,3 C 22,3 C 22,4 C 59 % 1013,0 hPa 0,0 l/m 8,6 km/h (2 Bft) W 276 10 min 0,000 mm 550 W/m 13,9 C 21,6 C 17,7 km/h (3 Bft) 100 %
16.09.2016 15:40 22,2 C 22,2 C 22,3 C 58 % 1013,0 hPa 0,0 l/m 8,2 km/h (2 Bft) W-NW 303 10 min 0,000 mm 165 W/m 13,5 C 21,6 C 29,0 km/h (5 Bft) 100 %
16.09.2016 15:50 21,6 C 21,6 C 22,2 C 60 % 1012,9 hPa 0,0 l/m 7,9 km/h (2 Bft) W 260 0 min 0,000 mm 146 W/m 13,5 C 21,1 C 17,7 km/h (3 Bft) 100 %
16.09.2016 16:00 21,1 C 21,1 C 21,6 C 62 % 1012,9 hPa 0,0 l/m 6,0 km/h (2 Bft) W 277 10 min 0,281 mm 190 W/m 13,5 C 21,1 C 14,5 km/h (3 Bft) 100 %
16.09.2016 16:10 20,7 C 20,7 C 21,1 C 63 % 1012,8 hPa 0,0 l/m 5,3 km/h (1 Bft) SW 225 10 min 0,000 mm 183 W/m 13,4 C 20,7 C 19,3 km/h (3 Bft) 100 %
16.09.2016 16:20 20,3 C 20,3 C 20,7 C 64 % 1012,6 hPa 0,0 l/m 4,2 km/h (1 Bft) W-NW 285 0 min 0,000 mm 132 W/m 13,3 C 20,3 C 17,7 km/h (3 Bft) 100 %
16.09.2016 16:30 20,0 C 20,0 C 20,3 C 66 % 1012,6 hPa 0,0 l/m 4,3 km/h (1 Bft) SW 234 0 min 0,000 mm 97 W/m 13,4 C 20,0 C 17,7 km/h (3 Bft) 100 %
16.09.2016 16:40 19,7 C 19,7 C 20,0 C 66 % 1012,5 hPa 0,0 l/m 4,0 km/h (1 Bft) NW 309 0 min 0,000 mm 84 W/m 13,2 C 19,7 C 16,1 km/h (3 Bft) 100 %
16.09.2016 16:50 19,4 C 19,4 C 19,7 C 67 % 1012,6 hPa 0,0 l/m 3,8 km/h (1 Bft) W 269 0 min 0,000 mm 69 W/m 13,1 C 19,4 C 12,9 km/h (3 Bft) 100 %
16.09.2016 17:00 19,1 C 19,1 C 19,4 C 68 % 1012,5 hPa 0,0 l/m 3,7 km/h (1 Bft) W 265 0 min 0,102 mm 105 W/m 13,1 C 19,1 C 14,5 km/h (3 Bft) 100 %
16.09.2016 17:10 18,9 C 18,9 C 19,1 C 70 % 1012,4 hPa 0,0 l/m 3,4 km/h (1 Bft) W 277 0 min 0,000 mm 123 W/m 13,3 C 18,9 C 16,1 km/h (3 Bft) 99 %
16.09.2016 17:20 18,9 C 18,8 C 18,9 C 70 % 1012,4 hPa 0,0 l/m 3,9 km/h (1 Bft) W-SW 252 0 min 0,000 mm 123 W/m 13,3 C 18,9 C 14,5 km/h (3 Bft) 100 %
16.09.2016 17:30 18,8 C 18,8 C 18,9 C 70 % 1012,4 hPa 0,0 l/m 3,9 km/h (1 Bft) W 259 0 min 0,000 mm 49 W/m 13,2 C 18,8 C 17,7 km/h (3 Bft) 100 %
16.09.2016 17:40 18,6 C 18,6 C 18,8 C 71 % 1012,3 hPa 0,0 l/m 3,3 km/h (1 Bft) NW 304 0 min 0,000 mm 49 W/m 13,2 C 18,6 C 19,3 km/h (3 Bft) 99 %
16.09.2016 17:50 18,4 C 18,4 C 18,6 C 72 % 1012,0 hPa 0,0 l/m 0,6 km/h (0 Bft) W-NW 283 0 min 0,000 mm 83 W/m 13,3 C 18,4 C 8,0 km/h (2 Bft) 100 %
16.09.2016 18:00 18,4 C 18,4 C 18,4 C 72 % 1012,0 hPa 0,0 l/m 0,3 km/h (0 Bft) NW 304 0 min 0,076 mm 56 W/m 13,3 C 18,4 C 8,0 km/h (2 Bft) 100 %
16.09.2016 18:10 18,3 C 18,3 C 18,4 C 73 % 1012,1 hPa 0,0 l/m 0,4 km/h (0 Bft) NW 317 0 min 0,000 mm 23 W/m 13,4 C 18,3 C 6,4 km/h (2 Bft) 99 %
16.09.2016 18:20 18,2 C 18,2 C 18,3 C 74 % 1012,1 hPa 0,0 l/m 1,9 km/h (1 Bft) W-SW 257 0 min 0,000 mm 21 W/m 13,5 C 18,2 C 11,3 km/h (2 Bft) 100 %
16.09.2016 18:30 18,1 C 18,1 C 18,2 C 74 % 1012,1 hPa 0,0 l/m 3,1 km/h (1 Bft) W-NW 292 0 min 0,000 mm 44 W/m 13,4 C 18,1 C 11,3 km/h (2 Bft) 99 %
16.09.2016 18:40 18,1 C 18,1 C 18,1 C 75 % 1012,3 hPa 0,0 l/m 0,8 km/h (0 Bft) W-NW 284 0 min 0,000 mm 21 W/m 13,6 C 18,1 C 8,0 km/h (2 Bft) 100 %
16.09.2016 18:50 18,0 C 18,0 C 18,1 C 75 % 1012,3 hPa 0,0 l/m 0,4 km/h (0 Bft) W-SW 257 0 min 0,000 mm 12 W/m 13,5 C 18,0 C 8,0 km/h (2 Bft) 100 %
16.09.2016 19:00 17,9 C 17,9 C 18,0 C 75 % 1012,4 hPa 0,0 l/m 2,9 km/h (1 Bft) W 267 0 min 0,026 mm 11 W/m 13,4 C 17,9 C 9,7 km/h (2 Bft) 99 %
16.09.2016 19:10 17,8 C 17,8 C 17,9 C 75 % 1012,3 hPa 0,0 l/m 0,6 km/h (0 Bft) W-NW 295 0 min 0,000 mm 7 W/m 13,3 C 17,8 C 8,0 km/h (2 Bft) 100 %
16.09.2016 19:20 17,8 C 17,8 C 17,8 C 76 % 1012,5 hPa 0,0 l/m 0,0 km/h (0 Bft) W-NW 296 0 min 0,000 mm 7 W/m 13,5 C 17,8 C 3,2 km/h (1 Bft) 99 %
16.09.2016 19:30 17,7 C 17,7 C 17,8 C 76 % 1012,5 hPa 0,0 l/m 0,3 km/h (0 Bft) W 279 0 min 0,000 mm 0 W/m 13,4 C 17,7 C 4,8 km/h (1 Bft) 100 %
16.09.2016 19:40 17,6 C 17,6 C 17,7 C 76 % 1012,4 hPa 0,0 l/m 0,1 km/h (0 Bft) W 273 0 min 0,000 mm 0 W/m 13,3 C 17,6 C 6,4 km/h (2 Bft) 100 %
16.09.2016 19:50 17,5 C 17,4 C 17,6 C 76 % 1012,4 hPa 0,0 l/m 0,3 km/h (0 Bft) W 280 0 min 0,000 mm 0 W/m 13,2 C 17,5 C 4,8 km/h (1 Bft) 100 %
16.09.2016 20:00 17,4 C 17,4 C 17,5 C 76 % 1012,4 hPa 0,0 l/m 0,7 km/h (0 Bft) W-NW 298 0 min 0,000 mm 0 W/m 13,1 C 17,4 C 6,4 km/h (2 Bft) 100 %
16.09.2016 20:10 17,3 C 17,3 C 17,4 C 77 % 1012,5 hPa 0,0 l/m 0,9 km/h (0 Bft) W-NW 301 0 min 0,000 mm 0 W/m 13,2 C 17,3 C 8,0 km/h (2 Bft) 100 %
16.09.2016 20:20 17,2 C 17,2 C 17,3 C 77 % 1012,4 hPa 0,0 l/m 0,0 km/h (0 Bft) W-NW 301 0 min 0,000 mm 0 W/m 13,1 C 17,2 C 1,6 km/h (1 Bft) 100 %
16.09.2016 20:30 17,1 C 17,1 C 17,2 C 77 % 1012,5 hPa 0,0 l/m 1,2 km/h (1 Bft) W-NW 294 0 min 0,000 mm 0 W/m 13,0 C 17,1 C 6,4 km/h (2 Bft) 100 %
16.09.2016 20:40 16,9 C 16,9 C 17,1 C 77 % 1012,7 hPa 0,0 l/m 2,3 km/h (1 Bft) W-NW 288 0 min 0,000 mm 0 W/m 12,8 C 16,9 C 9,7 km/h (2 Bft) 100 %
16.09.2016 20:50 16,8 C 16,8 C 16,9 C 78 % 1012,7 hPa 0,0 l/m 0,6 km/h (0 Bft) W-NW 289 0 min 0,000 mm 0 W/m 12,9 C 16,8 C 6,4 km/h (2 Bft) 100 %
16.09.2016 21:00 16,7 C 16,7 C 16,8 C 78 % 1012,8 hPa 0,0 l/m 0,0 km/h (0 Bft) W-NW 289 0 min 0,025 mm 0 W/m 12,8 C 16,7 C 0,0 km/h (0 Bft) 100 %
16.09.2016 21:10 16,6 C 16,6 C 16,7 C 79 % 1012,9 hPa 0,0 l/m 0,0 km/h (0 Bft) W-NW 292 0 min 0,000 mm 0 W/m 12,9 C 16,6 C 1,6 km/h (1 Bft) 100 %
16.09.2016 21:20 16,5 C 16,5 C 16,6 C 79 % 1012,8 hPa 0,0 l/m 0,0 km/h (0 Bft) W-NW 292 0 min 0,000 mm 0 W/m 12,8 C 16,5 C 1,6 km/h (1 Bft) 100 %
16.09.2016 21:30 16,4 C 16,4 C 16,5 C 80 % 1012,9 hPa 0,0 l/m 0,0 km/h (0 Bft) N 0 0 min 0,000 mm 0 W/m 12,9 C 16,4 C 0,0 km/h (0 Bft) 100 %
16.09.2016 21:40 16,3 C 16,3 C 16,4 C 81 % 1012,9 hPa 0,0 l/m 0,0 km/h (0 Bft) N 0 0 min 0,000 mm 0 W/m 13,0 C 16,3 C 0,0 km/h (0 Bft) 100 %
16.09.2016 21:50 16,2 C 16,2 C 16,3 C 81 % 1012,8 hPa 0,0 l/m 0,0 km/h (0 Bft) N 0 0 min 0,000 mm 0 W/m 12,9 C 16,2 C 0,0 km/h (0 Bft) 100 %
16.09.2016 22:00 16,1 C 16,1 C 16,2 C 82 % 1012,8 hPa 0,0 l/m 0,0 km/h (0 Bft) W-NW 292 0 min 0,025 mm 0 W/m 13,0 C 16,1 C 1,6 km/h (1 Bft) 100 %
16.09.2016 22:10 15,9 C 15,9 C 16,1 C 82 % 1012,8 hPa 0,0 l/m 0,0 km/h (0 Bft) W-NW 292 0 min 0,000 mm 0 W/m 12,8 C 15,9 C 1,6 km/h (1 Bft) 100 %
16.09.2016 22:20 15,8 C 15,8 C 15,9 C 83 % 1012,7 hPa 0,0 l/m 0,0 km/h (0 Bft) N 0 0 min 0,000 mm 0 W/m 12,9 C 15,8 C 0,0 km/h (0 Bft) 100 %
16.09.2016 22:30 15,7 C 15,7 C 15,8 C 83 % 1012,6 hPa 0,0 l/m 0,0 km/h (0 Bft) N 0 0 min 0,000 mm 0 W/m 12,8 C 15,7 C 0,0 km/h (0 Bft) 100 %
16.09.2016 22:40 15,6 C 15,6 C 15,7 C 84 % 1012,6 hPa 0,0 l/m 0,0 km/h (0 Bft) W-NW 292 0 min 0,000 mm 0 W/m 12,9 C 15,6 C 1,6 km/h (1 Bft) 100 %
16.09.2016 22:50 15,5 C 15,5 C 15,7 C 84 % 1012,5 hPa 0,0 l/m 0,0 km/h (0 Bft) N 0 0 min 0,000 mm 0 W/m 12,8 C 15,5 C 0,0 km/h (0 Bft) 100 %
16.09.2016 23:00 15,4 C 15,4 C 15,5 C 84 % 1012,5 hPa 0,0 l/m 0,0 km/h (0 Bft) N 0 0 min 0,025 mm 0 W/m 12,7 C 15,4 C 0,0 km/h (0 Bft) 100 %
16.09.2016 23:10 15,3 C 15,3 C 15,4 C 85 % 1012,7 hPa 0,0 l/m 0,0 km/h (0 Bft) N 0 0 min 0,000 mm 0 W/m 12,8 C 15,3 C 0,0 km/h (0 Bft) 100 %
16.09.2016 23:20 15,1 C 15,1 C 15,3 C 85 % 1012,6 hPa 0,0 l/m 0,0 km/h (0 Bft) N 0 0 min 0,000 mm 0 W/m 12,6 C 15,1 C 0,0 km/h (0 Bft) 100 %
16.09.2016 23:30 15,1 C 15,1 C 15,1 C 86 % 1012,7 hPa 0,0 l/m 0,0 km/h (0 Bft) N 0 0 min 0,000 mm 0 W/m 12,8 C 15,1 C 0,0 km/h (0 Bft) 100 %
16.09.2016 23:40 14,9 C 14,9 C 15,1 C 86 % 1012,7 hPa 0,0 l/m 0,0 km/h (0 Bft) N 0 0 min 0,000 mm 0 W/m 12,6 C 14,9 C 0,0 km/h (0 Bft) 100 %
16.09.2016 23:50 14,9 C 14,9 C 14,9 C 86 % 1012,7 hPa 0,0 l/m 0,0 km/h (0 Bft) W-NW 292 0 min 0,000 mm 0 W/m 12,6 C 14,9 C 1,6 km/h (1 Bft) 100 %
_ Min-Zeit 06:50 06:50 07:00 15:40 17:50 - 00:00 - - - - - 06:50 06:50 02:20 08:40
Minimum _ 12,6 C 12,6 C 12,8 C 58 % 1012,0 hPa - 0,0 km/h (0 Bft) - - - - - 11,0 C 12,6 C 0,0 km/h (0 Bft) 91 %
_ Max-Zeit 14:50 15:30 14:50 08:10 10:20 00:00 13:30 - - 15:20 15:00 14:00 12:40 14:40 15:40 00:00
Maximum _ 22,4 C 22,3 C 22,4 C 91 % 1014,2 hPa 0,0 l/m 12,9 km/h
NW (3 Bft)
- - 20 min 0,406 mm 962 W/m 15,5 C 22,2 C 29,0 km/h
W (5 Bft)
100 %
Durchschnitt _ 16,7 C 16,6 C 16,8 C 80 % 1013,0 hPa #0,0 l/m 2,0 km/h (1 Bft) W - #5:50 h #2,082 mm 264 W/m 13,2 C 16,6 C 7,0 km/h (2 Bft) 100 %
PRIVATE WETTERSTATION BILLIGHEIM-ALLFELD - www.neckar-odenwald-wetter.de - Holger Sonntag